La Grange Park, Illinois
Current Conditions -  °F | °C
As of 3:53 AM on Saturday 25 Oct 2014 (Local Time) from KMDW Reporting Station
Overcast Overcast  
Wind Chill: 58°   Ceiling: 1400
Heat Index: 58°   Visibility: 8mi
Dew Point: 53°   Wind: 7mph
Humidity: 84%   Direction: 260°W
Pressure: 29.91"   Gusts: NA
Location:  41.82°N, 87.87°W
Report Text: KMDW 250853Z 26006KT 8SM OVC014 14/12 A2991 RMK AO2 SLP124 T01440117 55003
Loading
Personal Weather Stations






























Interactive Weather Map New forecast layout! Learn more

10-Day Weather Forecast

Advertisements
Track Severe Weather on mobile